createdAt,value
2017-12-16T00:01:03.211Z,99.99
2017-12-16T00:02:13.192Z,99.99
2017-12-16T00:03:22.644Z,99.99
2017-12-16T00:04:32.621Z,99.99
2017-12-16T00:05:42.666Z,99.99
2017-12-16T00:06:52.644Z,99.99
2017-12-16T00:08:02.623Z,99.99
2017-12-16T00:09:12.603Z,99.99
2017-12-16T00:10:22.050Z,99.99
2017-12-16T00:11:31.771Z,99.99
2017-12-16T00:12:41.755Z,99.99
2017-12-16T00:13:51.465Z,99.99
2017-12-16T00:15:01.466Z,99.99
2017-12-16T00:16:11.466Z,99.99
2017-12-16T00:17:21.189Z,99.99
2017-12-16T00:18:31.176Z,99.99
2017-12-16T00:19:41.170Z,99.99
2017-12-16T00:20:51.149Z,99.99
2017-12-16T00:22:00.644Z,99.99
2017-12-16T00:23:10.650Z,99.99
2017-12-16T00:24:20.631Z,99.99
2017-12-16T00:25:30.614Z,99.99
2017-12-16T00:26:40.597Z,99.99
2017-12-16T00:27:50.574Z,99.99
2017-12-16T00:29:00.557Z,99.99
2017-12-16T00:30:10.271Z,99.99
2017-12-16T00:31:20.257Z,99.99
2017-12-16T00:32:29.982Z,99.99
2017-12-16T00:33:39.958Z,99.99
2017-12-16T00:34:49.944Z,99.99
2017-12-16T00:35:59.935Z,99.99
2017-12-16T00:37:09.650Z,99.99
2017-12-16T00:38:19.634Z,99.99
2017-12-16T00:39:29.369Z,99.99
2017-12-16T00:40:39.351Z,99.99
2017-12-16T00:41:49.338Z,99.99
2017-12-16T00:42:59.322Z,99.99
2017-12-16T00:44:09.301Z,99.99
2017-12-16T00:45:19.012Z,99.99
2017-12-16T00:46:28.726Z,99.99
2017-12-16T00:47:38.447Z,99.99
2017-12-16T00:48:50.430Z,99.99
2017-12-16T00:50:00.409Z,99.99
2017-12-16T00:51:10.388Z,99.99
2017-12-16T00:52:20.367Z,99.99
2017-12-16T00:53:30.345Z,99.99
2017-12-16T00:54:40.321Z,99.99
2017-12-16T00:55:50.309Z,99.99
2017-12-16T00:57:00.287Z,99.99
2017-12-16T00:58:10.270Z,99.99
2017-12-16T00:59:20.248Z,99.99
2017-12-16T01:00:29.962Z,99.99
2017-12-16T01:01:39.679Z,99.99
2017-12-16T01:02:49.658Z,99.99
2017-12-16T01:03:59.639Z,99.99
2017-12-16T01:05:09.620Z,99.99
2017-12-16T01:06:19.605Z,99.99
2017-12-16T01:07:29.321Z,99.99
2017-12-16T01:08:38.772Z,99.99
2017-12-16T01:09:48.748Z,99.99
2017-12-16T01:10:58.730Z,99.99
2017-12-16T01:12:08.715Z,99.99
2017-12-16T01:13:18.695Z,99.84
2017-12-16T01:14:28.417Z,99.84
2017-12-16T01:15:38.397Z,99.74
2017-12-16T01:16:48.111Z,99.18
2017-12-16T01:17:57.837Z,98.99
2017-12-16T01:19:07.817Z,98.8
2017-12-16T01:20:17.806Z,98.71
2017-12-16T01:21:27.784Z,98.71
2017-12-16T01:22:37.498Z,98.71
2017-12-16T01:23:49.216Z,99.18
2017-12-16T01:24:58.931Z,98.8
2017-12-16T01:26:08.915Z,98.23
2017-12-16T01:27:18.896Z,98.61
2017-12-16T01:28:28.873Z,98.52
2017-12-16T01:29:38.858Z,97.76
2017-12-16T01:30:48.844Z,97.85
2017-12-16T01:31:58.565Z,98.14
2017-12-16T01:33:08.542Z,98.33
2017-12-16T01:34:18.526Z,97.85
2017-12-16T01:35:28.513Z,97.85
2017-12-16T01:36:38.229Z,96.81
2017-12-16T01:37:48.209Z,97.29
2017-12-16T01:38:58.187Z,97.1
2017-12-16T01:40:08.173Z,97.29
2017-12-16T01:41:17.883Z,97.19
2017-12-16T01:42:27.599Z,97.67
2017-12-16T01:43:37.581Z,97.67
2017-12-16T01:44:47.563Z,97.19
2017-12-16T01:45:57.551Z,97.19
2017-12-16T01:47:07.533Z,96.34
2017-12-16T01:48:17.243Z,96.25
2017-12-16T01:49:27.223Z,95.97
2017-12-16T01:50:37.201Z,95.97
2017-12-16T01:51:47.191Z,95.21
2017-12-16T01:52:57.177Z,96.06
2017-12-16T01:54:06.897Z,95.59
2017-12-16T01:55:16.887Z,95.5
2017-12-16T01:56:26.600Z,95.68
2017-12-16T01:57:36.577Z,95.78
2017-12-16T01:58:46.573Z,96.15
2017-12-16T01:59:56.622Z,95.97
2017-12-16T02:01:06.607Z,96.06
2017-12-16T02:02:16.590Z,95.78
2017-12-16T02:03:26.567Z,96.34
2017-12-16T02:04:36.551Z,95.68
2017-12-16T02:05:46.533Z,95.97
2017-12-16T02:06:56.511Z,95.87
2017-12-16T02:08:06.491Z,95.87
2017-12-16T02:09:16.471Z,95.68
2017-12-16T02:10:26.455Z,95.87
2017-12-16T02:11:36.444Z,95.31
2017-12-16T02:12:46.427Z,95.21
2017-12-16T02:13:56.421Z,95.12
2017-12-16T02:15:06.404Z,94.84
2017-12-16T02:16:16.385Z,94.65
2017-12-16T02:17:26.368Z,94.84
2017-12-16T02:18:36.082Z,94.65
2017-12-16T02:19:46.061Z,94.93
2017-12-16T02:20:55.775Z,94.55
2017-12-16T02:22:05.754Z,94.84
2017-12-16T02:23:15.734Z,94.27
2017-12-16T02:24:25.448Z,94.65
2017-12-16T02:25:35.425Z,95.03
2017-12-16T02:26:45.136Z,94.84
2017-12-16T02:27:55.113Z,94.46
2017-12-16T02:29:05.090Z,94.46
2017-12-16T02:30:15.069Z,94.18
2017-12-16T02:31:25.054Z,93.7
2017-12-16T02:32:35.044Z,94.27
2017-12-16T02:33:45.021Z,94.08
2017-12-16T02:34:55.019Z,93.99
2017-12-16T02:36:05.014Z,93.99
2017-12-16T02:37:14.473Z,94.46
2017-12-16T02:38:24.457Z,94.46
2017-12-16T02:39:34.437Z,94.65
2017-12-16T02:40:44.435Z,94.46
2017-12-16T02:41:54.428Z,94.36
2017-12-16T02:43:04.418Z,94.55
2017-12-16T02:44:14.137Z,95.21
2017-12-16T02:45:24.119Z,94.65
2017-12-16T02:46:34.112Z,94.46
2017-12-16T02:47:44.101Z,94.55
2017-12-16T02:48:54.085Z,94.46
2017-12-16T02:50:04.071Z,94.08
2017-12-16T02:51:14.071Z,94.36
2017-12-16T02:52:23.787Z,94.46
2017-12-16T02:53:33.768Z,94.84
2017-12-16T02:54:43.492Z,94.36
2017-12-16T02:55:53.488Z,94.36
2017-12-16T02:57:03.468Z,95.03
2017-12-16T02:58:13.463Z,94.65
2017-12-16T02:59:23.440Z,94.65
2017-12-16T03:00:33.421Z,94.65
2017-12-16T03:01:43.408Z,94.65
2017-12-16T03:02:53.385Z,95.78
2017-12-16T03:04:03.371Z,95.78
2017-12-16T03:05:13.358Z,95.78
2017-12-16T03:06:23.333Z,95.78
2017-12-16T03:07:33.313Z,96.15
2017-12-16T03:08:43.025Z,97.1
2017-12-16T03:09:53.001Z,97.1
2017-12-16T03:11:03.038Z,97.29
2017-12-16T03:12:13.028Z,97.29
2017-12-16T03:13:23.008Z,97.19
2017-12-16T03:14:32.994Z,97.19
2017-12-16T03:15:42.970Z,97.29
2017-12-16T03:16:52.679Z,97.29
2017-12-16T03:18:02.659Z,98.04
2017-12-16T03:19:12.370Z,97.48
2017-12-16T03:20:22.403Z,97.19
2017-12-16T03:21:32.123Z,96.81
2017-12-16T03:22:42.105Z,96.91
2017-12-16T03:23:52.081Z,97.19
2017-12-16T03:25:02.064Z,96.91
2017-12-16T03:26:12.042Z,96.81
2017-12-16T03:27:22.025Z,97.19
2017-12-16T03:28:32.008Z,97.19
2017-12-16T03:29:41.995Z,96.72
2017-12-16T03:30:52.013Z,95.97
2017-12-16T03:32:01.739Z,95.03
2017-12-16T03:33:11.719Z,94.08
2017-12-16T03:34:21.443Z,93.7
2017-12-16T03:35:31.417Z,93.7
2017-12-16T03:36:41.138Z,93.51
2017-12-16T03:37:51.121Z,92.85
2017-12-16T03:39:01.101Z,92.38
2017-12-16T03:40:11.093Z,91.77
2017-12-16T03:41:21.069Z,92.14
2017-12-16T03:42:30.778Z,91.2
2017-12-16T03:43:40.766Z,92.14
2017-12-16T03:44:50.749Z,91.49
2017-12-16T03:46:00.728Z,91.49
2017-12-16T03:47:10.439Z,91.58
2017-12-16T03:48:20.158Z,91.96
2017-12-16T03:49:30.438Z,92.1
2017-12-16T03:50:40.417Z,91.35
2017-12-16T03:51:50.394Z,91.53
2017-12-16T03:53:00.428Z,91.82
2017-12-16T03:54:10.408Z,91.35
2017-12-16T03:55:20.388Z,92.47
2017-12-16T03:56:30.363Z,92.19
2017-12-16T03:57:40.348Z,92.29
2017-12-16T03:58:50.337Z,91.91
2017-12-16T04:00:00.325Z,91.91
2017-12-16T04:03:42.339Z,92.38
2017-12-16T04:04:52.312Z,92.66
2017-12-16T04:06:02.293Z,92.38
2017-12-16T04:07:12.007Z,92.52
2017-12-16T04:08:21.985Z,92.14
2017-12-16T04:09:31.960Z,91.77
2017-12-16T04:10:41.940Z,91.67
2017-12-16T04:11:51.983Z,92.71
2017-12-16T04:13:01.694Z,92.61
2017-12-16T04:14:11.671Z,92.05
2017-12-16T04:15:21.391Z,92.71
2017-12-16T04:16:31.365Z,92.47
2017-12-16T04:17:41.076Z,92.76
2017-12-16T04:18:51.057Z,93.04
2017-12-16T04:20:01.055Z,93.7
2017-12-16T04:21:11.035Z,93.7
2017-12-16T04:22:21.041Z,93.51
2017-12-16T04:23:30.497Z,93.99
2017-12-16T04:24:39.944Z,93.61
2017-12-16T04:25:49.928Z,93.75
2017-12-16T04:26:59.909Z,93.18
2017-12-16T04:28:09.896Z,92.71
2017-12-16T04:29:19.882Z,93.47
2017-12-16T04:30:29.859Z,93.7
2017-12-16T04:31:39.837Z,94.03
2017-12-16T04:32:49.548Z,94.41
2017-12-16T04:33:59.523Z,94.18
2017-12-16T04:35:09.497Z,94.08
2017-12-16T04:36:19.474Z,93.99
2017-12-16T04:37:29.451Z,94.46
2017-12-16T04:38:39.429Z,94.36
2017-12-16T04:39:49.411Z,94.84
2017-12-16T04:40:59.393Z,95.21
2017-12-16T04:42:09.380Z,95.21
2017-12-16T04:43:19.362Z,94.93
2017-12-16T04:44:28.829Z,94.93
2017-12-16T04:45:38.810Z,95.12
2017-12-16T04:46:48.796Z,94.36
2017-12-16T04:47:58.772Z,94.65
2017-12-16T04:49:08.759Z,94.65
2017-12-16T04:50:18.735Z,94.65
2017-12-16T04:51:28.716Z,95.12
2017-12-16T04:52:38.692Z,94.55
2017-12-16T04:53:48.406Z,94.55
2017-12-16T04:54:58.392Z,95.12
2017-12-16T04:56:08.375Z,95.12
2017-12-16T04:57:18.360Z,94.93
2017-12-16T04:58:28.391Z,94.93
2017-12-16T04:59:38.371Z,94.84
2017-12-16T05:00:48.084Z,94.65
2017-12-16T05:01:57.802Z,94.36
2017-12-16T05:03:07.780Z,94.46
2017-12-16T05:04:17.499Z,94.27
2017-12-16T05:05:27.527Z,94.74
2017-12-16T05:06:37.508Z,94.46
2017-12-16T05:07:47.496Z,93.99
2017-12-16T05:08:57.473Z,93.8
2017-12-16T05:10:07.449Z,93.7
2017-12-16T05:11:17.425Z,93.51
2017-12-16T05:12:27.454Z,93.51
2017-12-16T05:13:37.441Z,92.9
2017-12-16T05:14:47.419Z,93.8
2017-12-16T05:15:57.399Z,92.8
2017-12-16T05:17:07.375Z,92.52
2017-12-16T05:18:17.085Z,91.96
2017-12-16T05:19:27.067Z,92.33
2017-12-16T05:20:36.778Z,92.33
2017-12-16T05:21:46.759Z,92.52
2017-12-16T05:22:56.736Z,91.86
2017-12-16T05:24:06.450Z,92.14
2017-12-16T05:25:16.433Z,92.33
2017-12-16T05:26:26.414Z,91.86
2017-12-16T05:27:36.394Z,92.52
2017-12-16T05:28:46.386Z,92.05
2017-12-16T05:29:56.412Z,91.3
2017-12-16T05:31:06.397Z,91.96
2017-12-16T05:32:16.386Z,91.58
2017-12-16T05:33:26.370Z,91.2
2017-12-16T05:34:36.346Z,91.49
2017-12-16T05:35:46.063Z,91.58
2017-12-16T05:36:56.039Z,91.67
2017-12-16T05:38:06.023Z,91.01
2017-12-16T05:39:15.739Z,91.2
2017-12-16T05:40:25.476Z,91.2
2017-12-16T05:41:35.454Z,90.82
2017-12-16T05:42:45.172Z,89.78
2017-12-16T05:43:55.150Z,90.07
2017-12-16T05:45:05.132Z,89.22
2017-12-16T05:46:15.163Z,89.22
2017-12-16T05:47:25.142Z,89.78
2017-12-16T05:48:35.116Z,89.97
2017-12-16T05:49:45.156Z,89.12
2017-12-16T05:50:54.869Z,89.03
2017-12-16T05:52:04.581Z,89.4
2017-12-16T05:53:14.303Z,89.22
2017-12-16T05:54:24.284Z,89.4
2017-12-16T05:55:34.264Z,89.4
2017-12-16T05:56:44.266Z,89.88
2017-12-16T05:57:54.249Z,89.78
2017-12-16T05:59:04.227Z,90.26
2017-12-16T06:00:14.304Z,90.64
2017-12-16T06:01:24.017Z,90.64
2017-12-16T06:02:33.997Z,90.07
2017-12-16T06:03:43.978Z,89.88
2017-12-16T06:04:53.961Z,89.4
2017-12-16T06:06:03.943Z,89.31
2017-12-16T06:07:13.654Z,89.4
2017-12-16T06:08:23.642Z,89.59
2017-12-16T06:09:33.619Z,89.4
2017-12-16T06:10:43.597Z,88.65
2017-12-16T06:11:53.576Z,88.56
2017-12-16T06:13:03.556Z,89.22
2017-12-16T06:14:13.533Z,89.22
2017-12-16T06:15:23.514Z,89.4
2017-12-16T06:16:33.492Z,88.93
2017-12-16T06:17:45.627Z,89.59
2017-12-16T06:18:55.618Z,89.59
2017-12-16T06:20:05.330Z,89.4
2017-12-16T06:21:15.062Z,90.54
2017-12-16T06:22:24.774Z,90.35
2017-12-16T06:23:34.490Z,89.97
2017-12-16T06:24:44.470Z,89.22
2017-12-16T06:25:54.180Z,89.59
2017-12-16T06:27:03.896Z,89.22
2017-12-16T06:28:13.875Z,89.78
2017-12-16T06:29:23.859Z,91.01
2017-12-16T06:30:33.840Z,90.64
2017-12-16T06:31:43.833Z,90.73
2017-12-16T06:32:53.811Z,90.78
2017-12-16T06:34:03.800Z,91.06
2017-12-16T06:35:13.514Z,90.59
2017-12-16T06:36:23.493Z,90.78
2017-12-16T06:37:33.478Z,90.59
2017-12-16T06:38:43.454Z,90.87
2017-12-16T06:39:53.180Z,90.97
2017-12-16T06:41:03.154Z,90.87
2017-12-16T06:42:13.130Z,91.35
2017-12-16T06:43:22.841Z,91.44
2017-12-16T06:44:32.820Z,91.44
2017-12-16T06:45:42.530Z,90.97
2017-12-16T06:46:52.504Z,91.44
2017-12-16T06:48:02.492Z,91.44
2017-12-16T06:49:12.474Z,91.16
2017-12-16T06:50:22.463Z,91.44
2017-12-16T06:51:32.438Z,91.16
2017-12-16T06:52:42.149Z,91.91
2017-12-16T06:53:52.127Z,92
2017-12-16T06:55:02.108Z,92.19
2017-12-16T06:56:12.084Z,92.76
2017-12-16T06:57:22.063Z,93.61
2017-12-16T06:58:32.046Z,92.66
2017-12-16T06:59:42.023Z,92.85
2017-12-16T07:00:52.004Z,92.85
2017-12-16T07:02:01.978Z,93.32
2017-12-16T07:03:11.963Z,92.76
2017-12-16T07:04:21.948Z,93.04
2017-12-16T07:05:31.935Z,92.57
2017-12-16T07:06:41.911Z,92.47
2017-12-16T07:07:51.889Z,92.24
2017-12-16T07:09:01.872Z,92.33
2017-12-16T07:10:11.587Z,92.05
2017-12-16T07:11:21.575Z,91.39
2017-12-16T07:12:31.556Z,92.05
2017-12-16T07:13:41.271Z,92.14
2017-12-16T07:14:51.059Z,91.96
2017-12-16T07:16:01.047Z,91.77
2017-12-16T07:17:10.757Z,91.86
2017-12-16T07:18:20.469Z,92.61
2017-12-16T07:19:30.452Z,92.52
2017-12-16T07:20:40.167Z,91.96
2017-12-16T07:21:50.157Z,92.33
2017-12-16T07:23:00.139Z,92.33
2017-12-16T07:24:10.122Z,92.71
2017-12-16T07:25:19.833Z,91.67
2017-12-16T07:26:29.812Z,91.77
2017-12-16T07:27:39.797Z,91.39
2017-12-16T07:28:49.785Z,90.35
2017-12-16T07:29:59.765Z,90.07
2017-12-16T07:31:09.480Z,90.54
2017-12-16T07:32:19.462Z,90.64
2017-12-16T07:33:29.449Z,90.64
2017-12-16T07:34:39.159Z,90.64
2017-12-16T07:35:48.872Z,91.01
2017-12-16T07:36:58.851Z,90.82
2017-12-16T07:38:08.839Z,90.82
2017-12-16T07:39:18.815Z,89.59
2017-12-16T07:40:28.799Z,89.97
2017-12-16T07:41:38.518Z,90.16
2017-12-16T07:42:48.499Z,90.07
2017-12-16T07:43:58.476Z,90.16
2017-12-16T07:45:08.224Z,89.97
2017-12-16T07:46:17.987Z,90.45
2017-12-16T07:47:27.980Z,90.35
2017-12-16T07:48:37.696Z,90.45
2017-12-16T07:49:47.675Z,90.82
2017-12-16T07:50:57.389Z,90.97
2017-12-16T07:52:07.108Z,90.78
2017-12-16T07:53:16.833Z,90.45
2017-12-16T07:54:26.816Z,90.82
2017-12-16T07:55:36.800Z,91.01
2017-12-16T07:56:46.515Z,90.92
2017-12-16T07:57:56.496Z,90.92
2017-12-16T07:59:06.482Z,90.92
2017-12-16T08:00:16.505Z,91.39
2017-12-16T08:01:26.500Z,91.49
2017-12-16T08:02:36.482Z,91.58
2017-12-16T08:03:46.196Z,90.82
2017-12-16T08:04:55.917Z,90.54
2017-12-16T08:06:05.637Z,91.2
2017-12-16T08:07:15.618Z,91.58
2017-12-16T08:08:25.602Z,90.54
2017-12-16T08:09:35.582Z,90.82
2017-12-16T08:10:45.561Z,90.54
2017-12-16T08:11:55.542Z,90.64
2017-12-16T08:13:05.564Z,90.54
2017-12-16T08:14:15.546Z,90.07
2017-12-16T08:15:25.524Z,90.73
2017-12-16T08:16:35.514Z,90.64
2017-12-16T08:17:45.226Z,90.16
2017-12-16T08:18:55.209Z,90.82
2017-12-16T08:20:04.659Z,90.54
2017-12-16T08:21:14.656Z,90.82
2017-12-16T08:22:24.383Z,91.3
2017-12-16T08:23:34.094Z,91.2
2017-12-16T08:24:43.810Z,91.86
2017-12-16T08:25:53.792Z,92.05
2017-12-16T08:27:03.774Z,91.67
2017-12-16T08:28:13.485Z,92.24
2017-12-16T08:29:23.471Z,91.86
2017-12-16T08:30:33.445Z,92.43
2017-12-16T08:31:42.901Z,91.96
2017-12-16T08:32:52.940Z,91.49
2017-12-16T08:34:02.940Z,91.67
2017-12-16T08:35:12.926Z,91.58
2017-12-16T08:36:22.902Z,92.33
2017-12-16T08:37:32.623Z,92.52
2017-12-16T08:38:42.616Z,91.3
2017-12-16T08:39:52.664Z,91.49
2017-12-16T08:41:02.658Z,91.39
2017-12-16T08:42:12.640Z,91.2
2017-12-16T08:43:22.621Z,91.2
2017-12-16T08:44:32.342Z,90.64
2017-12-16T08:45:42.327Z,90.73
2017-12-16T08:46:52.311Z,90.45
2017-12-16T08:48:02.287Z,90.64
2017-12-16T08:49:12.280Z,90.92
2017-12-16T08:50:22.261Z,90.54
2017-12-16T08:51:32.247Z,90.26
2017-12-16T08:52:42.227Z,90.82
2017-12-16T08:53:52.208Z,91.11
2017-12-16T08:55:01.924Z,91.11
2017-12-16T08:56:11.910Z,90.45
2017-12-16T08:57:21.891Z,90.45
2017-12-16T08:58:31.871Z,90.92
2017-12-16T08:59:41.598Z,90.64
2017-12-16T09:00:51.309Z,91.3
2017-12-16T09:02:01.294Z,90.64
2017-12-16T09:03:11.005Z,90.92
2017-12-16T09:04:20.982Z,90.45
2017-12-16T09:05:30.965Z,90.73
2017-12-16T09:06:40.982Z,91.49
2017-12-16T09:07:50.961Z,91.49
2017-12-16T09:09:00.673Z,92.05
2017-12-16T09:10:10.388Z,91.86
2017-12-16T09:11:20.369Z,92.33
2017-12-16T09:12:30.345Z,92.33
2017-12-16T09:13:40.344Z,92.9
2017-12-16T09:14:50.322Z,93.18
2017-12-16T09:16:00.300Z,93.09
2017-12-16T09:17:10.282Z,93.75
2017-12-16T09:18:19.999Z,93.18
2017-12-16T09:19:29.980Z,94.32
2017-12-16T09:20:39.961Z,94.13
2017-12-16T09:21:49.935Z,94.22
2017-12-16T09:22:59.914Z,94.51
2017-12-16T09:24:09.636Z,94.79
2017-12-16T09:25:19.621Z,94.51
2017-12-16T09:26:29.608Z,94.89
2017-12-16T09:27:39.585Z,95.17
2017-12-16T09:28:49.574Z,94.51
2017-12-16T09:29:59.591Z,94.03
2017-12-16T09:31:09.589Z,94.41
2017-12-16T09:32:19.563Z,94.51
2017-12-16T09:33:29.276Z,94.32
2017-12-16T09:34:39.260Z,95.07
2017-12-16T09:35:49.241Z,95.07
2017-12-16T09:36:59.229Z,95.17
2017-12-16T09:38:09.213Z,94.22
2017-12-16T09:39:19.194Z,93.84
2017-12-16T09:40:29.179Z,94.03
2017-12-16T09:41:38.893Z,93.66
2017-12-16T09:42:48.622Z,93.56
2017-12-16T09:43:58.601Z,93.56
2017-12-16T09:45:08.326Z,93.75
2017-12-16T09:46:18.305Z,93.75
2017-12-16T09:47:30.281Z,93.56
2017-12-16T09:48:40.272Z,93.56
2017-12-16T09:49:49.993Z,95.17
2017-12-16T09:50:59.972Z,96.2
2017-12-16T09:52:09.966Z,98.57
2017-12-16T09:53:19.683Z,99.99
2017-12-16T09:54:29.669Z,99.99
2017-12-16T09:55:39.656Z,99.99
2017-12-16T09:56:49.644Z,99.99
2017-12-16T09:57:59.397Z,99.99
2017-12-16T09:59:11.387Z,99.99
2017-12-16T10:00:21.364Z,99.99
2017-12-16T10:01:31.352Z,99.99
2017-12-16T10:02:41.074Z,99.99
2017-12-16T10:03:51.058Z,99.99
2017-12-16T10:05:01.113Z,99.99
2017-12-16T10:06:11.091Z,99.99
2017-12-16T10:07:20.538Z,99.99
2017-12-16T10:08:30.524Z,99.99
2017-12-16T10:09:40.240Z,99.99
2017-12-16T10:10:50.222Z,99.99
2017-12-16T10:11:59.944Z,99.99
2017-12-16T10:13:09.657Z,99.99
2017-12-16T10:14:19.637Z,99.99
2017-12-16T10:15:29.618Z,99.99
2017-12-16T10:16:39.067Z,99.99
2017-12-16T10:17:49.046Z,99.99
2017-12-16T10:18:58.755Z,99.99
2017-12-16T10:20:08.822Z,99.99
2017-12-16T10:21:18.538Z,99.99
2017-12-16T10:22:28.520Z,99.99
2017-12-16T10:23:38.503Z,99.99
2017-12-16T10:24:48.483Z,99.99
2017-12-16T10:25:58.466Z,99.99
2017-12-16T10:27:08.179Z,99.99
2017-12-16T10:28:18.160Z,99.99
2017-12-16T10:29:28.140Z,99.99
2017-12-16T10:30:37.856Z,99.99
2017-12-16T10:31:47.570Z,99.99
2017-12-16T10:32:57.550Z,99.99
2017-12-16T10:34:07.529Z,99.99
2017-12-16T10:35:17.020Z,99.99
2017-12-16T10:36:27.008Z,99.99
2017-12-16T10:37:37.056Z,99.99
2017-12-16T10:38:47.041Z,99.99
2017-12-16T10:39:57.016Z,99.99
2017-12-16T10:41:07.001Z,99.99
2017-12-16T10:42:16.449Z,99.99
2017-12-16T10:43:26.165Z,99.99
2017-12-16T10:44:36.220Z,99.74
2017-12-16T10:45:46.201Z,99.84
2017-12-16T10:46:56.251Z,99.93
2017-12-16T10:48:06.234Z,99.74
2017-12-16T10:49:15.691Z,98.8
2017-12-16T10:50:25.406Z,99.74
2017-12-16T10:51:35.395Z,99.27
2017-12-16T10:52:45.377Z,98.99
2017-12-16T10:53:55.359Z,99.37
2017-12-16T10:55:05.073Z,99.18
2017-12-16T10:56:14.803Z,99.37
2017-12-16T10:57:24.794Z,99.08
2017-12-16T10:58:34.509Z,98.99
2017-12-16T10:59:44.486Z,98.71
2017-12-16T11:00:54.465Z,98.99
2017-12-16T11:02:04.446Z,98.99
2017-12-16T11:03:13.897Z,98.52
2017-12-16T11:04:23.877Z,98.04
2017-12-16T11:05:33.857Z,97.95
2017-12-16T11:06:43.843Z,97.57
2017-12-16T11:07:53.835Z,98.52
2017-12-16T11:09:03.814Z,97.67
2017-12-16T11:10:13.797Z,98.33
2017-12-16T11:11:23.510Z,98.52
2017-12-16T11:12:33.491Z,97.85
2017-12-16T11:13:42.938Z,97.76
2017-12-16T11:14:52.652Z,98.42
2017-12-16T11:16:02.631Z,98.42
2017-12-16T11:17:12.616Z,98.14
2017-12-16T11:18:22.609Z,98.33
2017-12-16T11:19:32.330Z,98.33
2017-12-16T11:20:42.045Z,98.52
2017-12-16T11:21:51.813Z,99.08
2017-12-16T11:23:01.529Z,99.37
2017-12-16T11:24:11.504Z,99.55
2017-12-16T11:25:21.221Z,99.18
2017-12-16T11:26:30.937Z,99.27
2017-12-16T11:27:40.912Z,99.27
2017-12-16T11:28:50.895Z,99.99
2017-12-16T11:30:00.873Z,99.65
2017-12-16T11:31:10.596Z,99.84
2017-12-16T11:32:20.578Z,99.99
2017-12-16T11:33:30.568Z,99.99
2017-12-16T11:34:40.301Z,99.99
2017-12-16T11:35:50.283Z,99.99
2017-12-16T11:37:00.260Z,99.99
2017-12-16T11:38:10.242Z,99.99
2017-12-16T11:39:20.226Z,99.99
2017-12-16T11:40:29.951Z,99.99
2017-12-16T11:41:39.931Z,99.99
2017-12-16T11:42:49.907Z,99.99
2017-12-16T11:43:59.905Z,99.99
2017-12-16T11:45:09.889Z,99.99
2017-12-16T11:46:19.874Z,99.99
2017-12-16T11:47:29.865Z,99.99
2017-12-16T11:48:39.847Z,99.99
2017-12-16T11:49:49.908Z,99.99
2017-12-16T11:50:59.886Z,99.99
2017-12-16T11:52:09.875Z,99.84
2017-12-16T11:53:19.598Z,98.99
2017-12-16T11:54:29.315Z,98.99
2017-12-16T11:55:39.293Z,98.14
2017-12-16T11:56:49.278Z,98.71
2017-12-16T11:57:59.005Z,97.76
2017-12-16T11:59:08.993Z,97.19
2017-12-16T12:00:19.051Z,97.67
2017-12-16T12:01:28.764Z,97.19
2017-12-16T12:02:38.482Z,96.63
2017-12-16T12:03:48.467Z,97.15
2017-12-16T12:04:58.184Z,96.63
2017-12-16T12:06:08.163Z,95.97
2017-12-16T12:07:17.612Z,95.83
2017-12-16T12:08:27.591Z,95.78
2017-12-16T12:09:37.580Z,95.68
2017-12-16T12:10:47.561Z,94.93
2017-12-16T12:11:57.538Z,95.73
2017-12-16T12:13:07.254Z,95.21
2017-12-16T12:14:17.233Z,94.84
2017-12-16T12:15:26.686Z,95.21
2017-12-16T12:16:36.677Z,94.84
2017-12-16T12:17:46.665Z,94.74
2017-12-16T12:18:56.643Z,94.93
2017-12-16T12:20:06.626Z,95.12
2017-12-16T12:21:16.603Z,94.51
2017-12-16T12:22:26.587Z,94.55
2017-12-16T12:23:36.619Z,93.8
2017-12-16T12:24:46.631Z,93.47
2017-12-16T12:25:56.351Z,92.66
2017-12-16T12:27:06.072Z,92.66
2017-12-16T12:28:15.784Z,93.04
2017-12-16T12:29:25.766Z,93.18
2017-12-16T12:30:35.752Z,93.18
2017-12-16T12:31:45.742Z,92.61
2017-12-16T12:32:55.729Z,92.61
2017-12-16T12:34:05.727Z,93.09
2017-12-16T12:35:15.703Z,93.28
2017-12-16T12:36:25.682Z,93.61
2017-12-16T12:37:35.670Z,93.7
2017-12-16T12:38:45.649Z,94.27
2017-12-16T12:39:55.627Z,94.46
2017-12-16T12:41:05.623Z,94.93
2017-12-16T12:42:15.352Z,94.74
2017-12-16T12:43:25.336Z,94.36
2017-12-16T12:44:35.323Z,94.55
2017-12-16T12:45:45.042Z,94.74
2017-12-16T12:46:55.023Z,94.08
2017-12-16T12:48:05.001Z,94.08
2017-12-16T12:49:14.979Z,93.32
2017-12-16T12:50:24.973Z,93.42
2017-12-16T12:51:34.968Z,92.85
2017-12-16T12:52:44.951Z,92.57
2017-12-16T12:53:54.933Z,92.85
2017-12-16T12:55:04.920Z,92.85
2017-12-16T12:56:14.898Z,92.85
2017-12-16T12:57:24.347Z,92.66
2017-12-16T12:58:34.330Z,92.57
2017-12-16T12:59:44.308Z,92.38
2017-12-16T13:00:54.377Z,92.29
2017-12-16T13:02:04.359Z,91.82
2017-12-16T13:03:14.407Z,92.66
2017-12-16T13:04:24.387Z,92.29
2017-12-16T13:05:34.104Z,92.1
2017-12-16T13:06:44.085Z,91.82
2017-12-16T13:07:54.075Z,92.1
2017-12-16T13:09:04.053Z,92.47
2017-12-16T13:10:14.034Z,92.38
2017-12-16T13:11:24.022Z,92.38
2017-12-16T13:12:34.012Z,92
2017-12-16T13:13:43.991Z,92.19
2017-12-16T13:14:53.708Z,92.29
2017-12-16T13:16:03.690Z,92.29
2017-12-16T13:17:13.414Z,92.19
2017-12-16T13:18:23.396Z,91.91
2017-12-16T13:19:33.381Z,91.91
2017-12-16T13:20:43.360Z,91.82
2017-12-16T13:21:53.089Z,92
2017-12-16T13:23:03.069Z,92
2017-12-16T13:24:12.518Z,92.66
2017-12-16T13:25:22.498Z,92.29
2017-12-16T13:26:32.210Z,92.1
2017-12-16T13:27:42.186Z,92.38
2017-12-16T13:28:51.901Z,92.47
2017-12-16T13:30:01.615Z,92.29
2017-12-16T13:31:11.594Z,92.1
2017-12-16T13:32:21.571Z,92.57
2017-12-16T13:33:31.584Z,92.47
2017-12-16T13:34:41.563Z,92
2017-12-16T13:35:51.547Z,91.44
2017-12-16T13:37:01.532Z,91.44
2017-12-16T13:38:11.519Z,91.91
2017-12-16T13:39:21.504Z,92.1
2017-12-16T13:40:31.786Z,91.72
2017-12-16T13:41:41.513Z,92.1
2017-12-16T13:42:51.229Z,92.47
2017-12-16T13:44:00.944Z,92.57
2017-12-16T13:45:10.401Z,92.19
2017-12-16T13:46:20.378Z,92
2017-12-16T13:47:30.356Z,93.04
2017-12-16T13:48:40.411Z,93.04
2017-12-16T13:49:50.457Z,93.04
2017-12-16T13:51:00.440Z,92.85
2017-12-16T13:52:10.151Z,92.76
2017-12-16T13:53:20.134Z,92.76
2017-12-16T13:54:30.113Z,92.85
2017-12-16T13:55:40.095Z,92.85
2017-12-16T13:56:50.073Z,92.85
2017-12-16T13:57:59.785Z,92.66
2017-12-16T13:59:09.762Z,92.76
2017-12-16T14:00:19.753Z,92.57
2017-12-16T14:01:29.202Z,93.04
2017-12-16T14:02:39.179Z,93.04
2017-12-16T14:03:48.894Z,92.9
2017-12-16T14:04:58.886Z,92.95
2017-12-16T14:06:08.330Z,93.23
2017-12-16T14:07:18.043Z,93.28
2017-12-16T14:08:27.758Z,92.71
2017-12-16T14:09:37.211Z,92.9
2017-12-16T14:10:46.932Z,92.8
2017-12-16T14:11:56.917Z,92.9
2017-12-16T14:13:06.630Z,93.75
2017-12-16T14:14:16.606Z,93.47
2017-12-16T14:15:26.592Z,93.65
2017-12-16T14:16:36.624Z,93.47
2017-12-16T14:17:46.665Z,93.47
2017-12-16T14:18:56.642Z,93.47
2017-12-16T14:20:06.363Z,93.47
2017-12-16T14:21:16.073Z,93.84
2017-12-16T14:22:26.056Z,93.37
2017-12-16T14:23:36.132Z,93.47
2017-12-16T14:24:45.864Z,93.28
2017-12-16T14:25:55.305Z,93.65
2017-12-16T14:27:05.286Z,93.84
2017-12-16T14:28:14.999Z,93.47
2017-12-16T14:29:24.714Z,93.47
2017-12-16T14:30:34.693Z,92.9
2017-12-16T14:31:44.407Z,92.33
2017-12-16T14:32:54.389Z,92.24
2017-12-16T14:34:04.373Z,92.8
2017-12-16T14:35:14.128Z,92.9
2017-12-16T14:36:24.156Z,93.84
2017-12-16T14:37:34.140Z,94.41
2017-12-16T14:38:44.119Z,93.94
2017-12-16T14:39:54.097Z,94.32
2017-12-16T14:41:03.815Z,94.03
2017-12-16T14:42:13.804Z,93.94
2017-12-16T14:43:23.525Z,93.75
2017-12-16T14:44:33.513Z,93.65
2017-12-16T14:45:43.489Z,93.37
2017-12-16T14:46:53.472Z,92.52
2017-12-16T14:48:03.492Z,92.61
2017-12-16T14:49:13.487Z,92.99
2017-12-16T14:50:22.933Z,93.65
2017-12-16T14:51:32.915Z,94.13
2017-12-16T14:52:42.896Z,94.6
2017-12-16T14:53:52.874Z,94.79
2017-12-16T14:55:02.867Z,95.64
2017-12-16T14:56:12.585Z,95.92
2017-12-16T14:57:22.357Z,95.45
2017-12-16T14:58:32.072Z,95.83
2017-12-16T14:59:41.784Z,95.73
2017-12-16T15:00:51.498Z,95.17
2017-12-16T15:02:01.481Z,94.79
2017-12-16T15:03:11.458Z,95.83
2017-12-16T15:04:21.446Z,95.73
2017-12-16T15:05:31.428Z,95.64
2017-12-16T15:06:41.411Z,95.54